sensor_id;sensor_type;location;lat;lon;timestamp;pressure;altitude;pressure_sealevel;temperature;humidity
26487;BME280;14425;56.136;40.360;2023-02-13T00:01:07;99695.25;;;-1.74;59.40
26487;BME280;14425;56.136;40.360;2023-02-13T00:03:33;99705.88;;;-1.68;59.79
26487;BME280;14425;56.136;40.360;2023-02-13T00:05:58;99709.75;;;-1.81;60.91
26487;BME280;14425;56.136;40.360;2023-02-13T00:08:24;99712.09;;;-1.54;60.82
26487;BME280;14425;56.136;40.360;2023-02-13T00:10:49;99707.88;;;-1.74;59.97
26487;BME280;14425;56.136;40.360;2023-02-13T00:13:15;99698.91;;;-2.68;61.14
26487;BME280;14425;56.136;40.360;2023-02-13T00:15:40;99695.25;;;-2.72;65.26
26487;BME280;14425;56.136;40.360;2023-02-13T00:18:05;99687.50;;;-1.96;62.71
26487;BME280;14425;56.136;40.360;2023-02-13T00:20:31;99682.25;;;-1.47;61.23
26487;BME280;14425;56.136;40.360;2023-02-13T00:22:58;99676.53;;;-1.35;59.55
26487;BME280;14425;56.136;40.360;2023-02-13T00:25:24;99682.06;;;-1.80;58.72
26487;BME280;14425;56.136;40.360;2023-02-13T00:27:52;99687.50;;;-2.54;62.44
26487;BME280;14425;56.136;40.360;2023-02-13T00:30:19;99677.56;;;-2.13;61.52
26487;BME280;14425;56.136;40.360;2023-02-13T00:32:44;99675.00;;;-2.24;63.20
26487;BME280;14425;56.136;40.360;2023-02-13T00:35:10;99674.38;;;-2.21;61.75
26487;BME280;14425;56.136;40.360;2023-02-13T00:37:35;99663.25;;;-1.01;62.02
26487;BME280;14425;56.136;40.360;2023-02-13T00:40:01;99658.72;;;-1.57;60.09
26487;BME280;14425;56.136;40.360;2023-02-13T00:42:26;99668.47;;;-1.20;60.39
26487;BME280;14425;56.136;40.360;2023-02-13T00:44:52;99669.88;;;-1.44;60.33
26487;BME280;14425;56.136;40.360;2023-02-13T00:47:19;99672.88;;;-1.28;60.25
26487;BME280;14425;56.136;40.360;2023-02-13T00:49:45;99667.69;;;-1.40;59.79
26487;BME280;14425;56.136;40.360;2023-02-13T00:52:10;99666.69;;;-1.32;58.51
26487;BME280;14425;56.136;40.360;2023-02-13T00:54:36;99668.56;;;-1.80;61.44
26487;BME280;14425;56.136;40.360;2023-02-13T00:57:02;99660.25;;;-1.59;60.68
26487;BME280;14425;56.136;40.360;2023-02-13T00:59:27;99650.88;;;-1.29;60.72
26487;BME280;14425;56.136;40.360;2023-02-13T01:01:53;99657.72;;;-1.69;59.85
26487;BME280;14425;56.136;40.360;2023-02-13T01:04:19;99663.75;;;-1.77;60.43
26487;BME280;14425;56.136;40.360;2023-02-13T01:06:44;99656.16;;;-1.05;59.85
26487;BME280;14425;56.136;40.360;2023-02-13T01:09:10;99664.03;;;-1.13;59.53
26487;BME280;14425;56.136;40.360;2023-02-13T01:11:35;99657.72;;;-1.59;60.91
26487;BME280;14425;56.136;40.360;2023-02-13T01:14:01;99661.50;;;-1.74;60.76
26487;BME280;14425;56.136;40.360;2023-02-13T01:16:26;99658.38;;;-2.01;59.97
26487;BME280;14425;56.136;40.360;2023-02-13T01:18:52;99665.91;;;-2.21;61.69
26487;BME280;14425;56.136;40.360;2023-02-13T01:21:20;99662.78;;;-2.48;61.69
26487;BME280;14425;56.136;40.360;2023-02-13T01:23:47;99664.69;;;-2.94;64.06
26487;BME280;14425;56.136;40.360;2023-02-13T01:26:21;99655.28;;;-2.86;65.81
26487;BME280;14425;56.136;40.360;2023-02-13T01:28:47;99656.78;;;-2.30;63.58
26487;BME280;14425;56.136;40.360;2023-02-13T01:31:15;99649.59;;;-1.65;61.48
26487;BME280;14425;56.136;40.360;2023-02-13T01:33:41;99643.81;;;-2.24;61.13
26487;BME280;14425;56.136;40.360;2023-02-13T01:36:10;99636.97;;;-2.25;63.80
26487;BME280;14425;56.136;40.360;2023-02-13T01:38:36;99623.81;;;-2.31;61.59
26487;BME280;14425;56.136;40.360;2023-02-13T01:41:02;99619.84;;;-2.78;65.48
26487;BME280;14425;56.136;40.360;2023-02-13T01:46:09;99614.09;;;-2.37;63.99
26487;BME280;14425;56.136;40.360;2023-02-13T01:48:35;99611.44;;;-2.97;64.40
26487;BME280;14425;56.136;40.360;2023-02-13T01:51:04;99617.06;;;-2.01;64.69
26487;BME280;14425;56.136;40.360;2023-02-13T01:57:07;99616.06;;;-2.43;64.37
26487;BME280;14425;56.136;40.360;2023-02-13T01:59:19;99608.56;;;-2.91;64.59
26487;BME280;14425;56.136;40.360;2023-02-13T02:01:46;99605.97;;;-3.21;66.12
26487;BME280;14425;56.136;40.360;2023-02-13T02:06:47;99596.13;;;-2.40;64.94
26487;BME280;14425;56.136;40.360;2023-02-13T02:09:17;99594.66;;;-2.97;65.42
26487;BME280;14425;56.136;40.360;2023-02-13T02:14:11;99589.75;;;-3.14;66.23
26487;BME280;14425;56.136;40.360;2023-02-13T02:16:57;99588.59;;;-2.59;66.57
26487;BME280;14425;56.136;40.360;2023-02-13T02:19:36;99579.06;;;-1.62;62.35
26487;BME280;14425;56.136;40.360;2023-02-13T02:33:31;99558.03;;;-5.67;70.72
26487;BME280;14425;56.136;40.360;2023-02-13T02:39:15;99548.13;;;-4.32;78.38
26487;BME280;14425;56.136;40.360;2023-02-13T02:47:33;99541.81;;;-4.09;70.05
26487;BME280;14425;56.136;40.360;2023-02-13T02:56:24;99540.66;;;-4.86;75.53
26487;BME280;14425;56.136;40.360;2023-02-13T02:59:02;99537.25;;;-4.95;74.24
26487;BME280;14425;56.136;40.360;2023-02-13T03:01:47;99532.47;;;-4.74;74.55
26487;BME280;14425;56.136;40.360;2023-02-13T03:04:43;99524.31;;;-4.63;76.54
26487;BME280;14425;56.136;40.360;2023-02-13T03:07:29;99507.06;;;-4.50;73.69
26487;BME280;14425;56.136;40.360;2023-02-13T03:10:00;99523.22;;;-4.93;78.98
26487;BME280;14425;56.136;40.360;2023-02-13T03:13:00;99525.78;;;-5.36;76.61
26487;BME280;14425;56.136;40.360;2023-02-13T03:15:51;99518.22;;;-4.65;75.50
26487;BME280;14425;56.136;40.360;2023-02-13T03:18:42;99510.41;;;-4.13;71.12
26487;BME280;14425;56.136;40.360;2023-02-13T03:24:44;99514.47;;;-4.88;70.33
26487;BME280;14425;56.136;40.360;2023-02-13T03:27:33;99513.56;;;-3.77;70.37
26487;BME280;14425;56.136;40.360;2023-02-13T03:38:44;99508.91;;;-4.66;71.44
26487;BME280;14425;56.136;40.360;2023-02-13T03:41:30;99519.09;;;-5.01;70.96
26487;BME280;14425;56.136;40.360;2023-02-13T03:44:14;99506.00;;;-4.88;75.02
26487;BME280;14425;56.136;40.360;2023-02-13T03:46:43;99495.00;;;-4.35;73.30
26487;BME280;14425;56.136;40.360;2023-02-13T03:49:32;99492.78;;;-5.05;74.05
26487;BME280;14425;56.136;40.360;2023-02-13T03:52:47;99488.31;;;-5.07;72.57
26487;BME280;14425;56.136;40.360;2023-02-13T03:55:20;99487.00;;;-4.67;72.40
26487;BME280;14425;56.136;40.360;2023-02-13T03:58:22;99502.38;;;-6.82;80.78
26487;BME280;14425;56.136;40.360;2023-02-13T04:01:07;99496.59;;;-5.08;80.42
26487;BME280;14425;56.136;40.360;2023-02-13T04:06:09;99470.78;;;-4.52;71.39
26487;BME280;14425;56.136;40.360;2023-02-13T04:08:35;99462.19;;;-4.82;73.61
26487;BME280;14425;56.136;40.360;2023-02-13T04:13:55;99454.28;;;-4.39;69.82
26487;BME280;14425;56.136;40.360;2023-02-13T04:16:28;99452.25;;;-3.97;69.71
26487;BME280;14425;56.136;40.360;2023-02-13T04:18:55;99450.66;;;-3.86;67.93
26487;BME280;14425;56.136;40.360;2023-02-13T04:21:21;99444.00;;;-4.51;67.87
26487;BME280;14425;56.136;40.360;2023-02-13T04:23:46;99451.81;;;-4.76;72.04
26487;BME280;14425;56.136;40.360;2023-02-13T04:26:22;99451.88;;;-4.85;68.34
26487;BME280;14425;56.136;40.360;2023-02-13T04:28:48;99456.06;;;-5.91;71.78
26487;BME280;14425;56.136;40.360;2023-02-13T04:31:13;99463.22;;;-6.64;77.90
26487;BME280;14425;56.136;40.360;2023-02-13T04:33:39;99454.00;;;-6.04;77.44
26487;BME280;14425;56.136;40.360;2023-02-13T04:36:04;99442.03;;;-5.81;81.95
26487;BME280;14425;56.136;40.360;2023-02-13T04:38:30;99437.72;;;-5.55;78.97
26487;BME280;14425;56.136;40.360;2023-02-13T04:40:55;99435.50;;;-5.70;75.69
26487;BME280;14425;56.136;40.360;2023-02-13T04:43:21;99447.91;;;-5.71;75.49
26487;BME280;14425;56.136;40.360;2023-02-13T04:45:48;99442.25;;;-5.34;76.54
26487;BME280;14425;56.136;40.360;2023-02-13T04:48:13;99440.25;;;-5.10;74.21
26487;BME280;14425;56.136;40.360;2023-02-13T04:50:39;99429.97;;;-5.40;74.90
26487;BME280;14425;56.136;40.360;2023-02-13T04:53:04;99437.25;;;-5.51;77.15
26487;BME280;14425;56.136;40.360;2023-02-13T04:55:30;99425.84;;;-4.94;75.50
26487;BME280;14425;56.136;40.360;2023-02-13T04:57:55;99431.56;;;-5.14;71.20
26487;BME280;14425;56.136;40.360;2023-02-13T05:00:22;99426.84;;;-4.55;70.77
26487;BME280;14425;56.136;40.360;2023-02-13T05:02:48;99437.00;;;-5.81;72.23
26487;BME280;14425;56.136;40.360;2023-02-13T05:05:14;99420.00;;;-5.83;76.27
26487;BME280;14425;56.136;40.360;2023-02-13T05:07:40;99408.44;;;-5.10;73.14
26487;BME280;14425;56.136;40.360;2023-02-13T05:10:07;99407.38;;;-6.79;78.83
26487;BME280;14425;56.136;40.360;2023-02-13T05:12:32;99416.66;;;-6.27;83.85
26487;BME280;14425;56.136;40.360;2023-02-13T05:14:58;99412.94;;;-5.25;75.30
26487;BME280;14425;56.136;40.360;2023-02-13T05:17:23;99415.72;;;-4.76;73.68
26487;BME280;14425;56.136;40.360;2023-02-13T05:19:48;99408.25;;;-4.66;68.71
26487;BME280;14425;56.136;40.360;2023-02-13T05:22:14;99408.56;;;-5.45;74.15
26487;BME280;14425;56.136;40.360;2023-02-13T05:24:58;99404.16;;;-5.65;73.85
26487;BME280;14425;56.136;40.360;2023-02-13T05:27:23;99387.97;;;-5.32;73.13
26487;BME280;14425;56.136;40.360;2023-02-13T05:29:49;99388.16;;;-6.10;76.26
26487;BME280;14425;56.136;40.360;2023-02-13T05:32:14;99394.59;;;-5.69;75.53
26487;BME280;14425;56.136;40.360;2023-02-13T05:34:40;99403.16;;;-6.63;78.65
26487;BME280;14425;56.136;40.360;2023-02-13T05:37:05;99389.19;;;-6.17;79.21
26487;BME280;14425;56.136;40.360;2023-02-13T05:39:31;99381.69;;;-5.46;79.64
26487;BME280;14425;56.136;40.360;2023-02-13T05:41:56;99379.06;;;-5.91;76.03
26487;BME280;14425;56.136;40.360;2023-02-13T05:44:22;99371.16;;;-5.42;75.91
26487;BME280;14425;56.136;40.360;2023-02-13T05:46:47;99379.31;;;-5.44;75.57
26487;BME280;14425;56.136;40.360;2023-02-13T05:49:14;99388.94;;;-5.66;77.05
26487;BME280;14425;56.136;40.360;2023-02-13T05:51:40;99377.47;;;-4.91;75.27
26487;BME280;14425;56.136;40.360;2023-02-13T05:54:06;99378.69;;;-4.50;71.41
26487;BME280;14425;56.136;40.360;2023-02-13T05:56:32;99382.84;;;-4.31;71.19
26487;BME280;14425;56.136;40.360;2023-02-13T05:58:57;99386.50;;;-4.66;69.97
26487;BME280;14425;56.136;40.360;2023-02-13T06:01:23;99390.94;;;-4.44;67.16
26487;BME280;14425;56.136;40.360;2023-02-13T06:03:49;99393.88;;;-5.23;71.35
26487;BME280;14425;56.136;40.360;2023-02-13T06:06:15;99380.94;;;-4.34;70.63
26487;BME280;14425;56.136;40.360;2023-02-13T06:08:40;99387.25;;;-5.03;67.98
26487;BME280;14425;56.136;40.360;2023-02-13T06:11:06;99381.19;;;-5.42;73.09
26487;BME280;14425;56.136;40.360;2023-02-13T06:13:32;99370.47;;;-5.22;72.28
26487;BME280;14425;56.136;40.360;2023-02-13T06:15:57;99363.97;;;-4.92;76.31
26487;BME280;14425;56.136;40.360;2023-02-13T06:18:23;99368.81;;;-4.57;70.83
26487;BME280;14425;56.136;40.360;2023-02-13T06:20:49;99357.88;;;-4.19;68.53
26487;BME280;14425;56.136;40.360;2023-02-13T06:23:15;99362.91;;;-4.57;66.96
26487;BME280;14425;56.136;40.360;2023-02-13T06:25:40;99350.09;;;-4.50;69.52
26487;BME280;14425;56.136;40.360;2023-02-13T06:28:06;99342.03;;;-5.48;69.77
26487;BME280;14425;56.136;40.360;2023-02-13T06:30:32;99343.28;;;-4.70;71.81
26487;BME280;14425;56.136;40.360;2023-02-13T06:32:57;99357.97;;;-4.75;71.96
26487;BME280;14425;56.136;40.360;2023-02-13T06:35:23;99353.38;;;-4.32;70.80
26487;BME280;14425;56.136;40.360;2023-02-13T06:37:49;99371.00;;;-4.98;69.89
26487;BME280;14425;56.136;40.360;2023-02-13T06:40:15;99365.16;;;-4.41;69.63
26487;BME280;14425;56.136;40.360;2023-02-13T06:42:42;99351.88;;;-4.11;68.31
26487;BME280;14425;56.136;40.360;2023-02-13T06:45:08;99344.13;;;-3.75;66.19
26487;BME280;14425;56.136;40.360;2023-02-13T06:47:34;99339.91;;;-4.71;67.81
26487;BME280;14425;56.136;40.360;2023-02-13T06:50:00;99342.66;;;-5.60;72.66
26487;BME280;14425;56.136;40.360;2023-02-13T06:52:25;99326.69;;;-5.15;75.38
26487;BME280;14425;56.136;40.360;2023-02-13T06:54:51;99309.88;;;-4.97;73.83
26487;BME280;14425;56.136;40.360;2023-02-13T06:57:16;99315.34;;;-4.73;76.17
26487;BME280;14425;56.136;40.360;2023-02-13T06:59:42;99308.22;;;-4.96;74.71
26487;BME280;14425;56.136;40.360;2023-02-13T07:02:09;99305.75;;;-5.24;79.28
26487;BME280;14425;56.136;40.360;2023-02-13T07:04:35;99302.38;;;-5.06;78.24
26487;BME280;14425;56.136;40.360;2023-02-13T07:07:00;99295.16;;;-5.76;85.04
26487;BME280;14425;56.136;40.360;2023-02-13T07:09:26;99290.91;;;-5.85;89.71
26487;BME280;14425;56.136;40.360;2023-02-13T07:11:51;99280.03;;;-5.67;90.24
26487;BME280;14425;56.136;40.360;2023-02-13T07:14:17;99279.44;;;-5.28;88.42
26487;BME280;14425;56.136;40.360;2023-02-13T07:16:42;99283.00;;;-6.16;89.31
26487;BME280;14425;56.136;40.360;2023-02-13T07:19:08;99278.75;;;-6.61;92.85
26487;BME280;14425;56.136;40.360;2023-02-13T07:21:33;99291.31;;;-6.43;98.49
26487;BME280;14425;56.136;40.360;2023-02-13T07:23:59;99273.47;;;-6.46;93.02
26487;BME280;14425;56.136;40.360;2023-02-13T07:26:25;99276.66;;;-6.21;94.12
26487;BME280;14425;56.136;40.360;2023-02-13T07:28:51;99300.28;;;-6.19;94.99
26487;BME280;14425;56.136;40.360;2023-02-13T07:31:17;99275.09;;;-4.54;91.02
26487;BME280;14425;56.136;40.360;2023-02-13T07:33:42;99278.84;;;-4.11;89.32
26487;BME280;14425;56.136;40.360;2023-02-13T07:36:08;99275.69;;;-4.38;92.25
26487;BME280;14425;56.136;40.360;2023-02-13T07:38:34;99277.25;;;-4.30;85.83
26487;BME280;14425;56.136;40.360;2023-02-13T07:41:00;99253.75;;;-3.20;83.30
26487;BME280;14425;56.136;40.360;2023-02-13T07:43:26;99255.09;;;-3.94;75.79
26487;BME280;14425;56.136;40.360;2023-02-13T07:45:52;99250.34;;;-3.81;79.63
26487;BME280;14425;56.136;40.360;2023-02-13T07:48:23;99248.47;;;-4.42;79.14
26487;BME280;14425;56.136;40.360;2023-02-13T07:50:51;99238.72;;;-3.99;76.82
26487;BME280;14425;56.136;40.360;2023-02-13T07:53:17;99223.91;;;-2.52;79.78
26487;BME280;14425;56.136;40.360;2023-02-13T07:55:42;99236.59;;;-2.83;69.84
26487;BME280;14425;56.136;40.360;2023-02-13T07:58:08;99215.53;;;-3.14;73.21
26487;BME280;14425;56.136;40.360;2023-02-13T08:00:33;99219.19;;;-3.11;73.44
26487;BME280;14425;56.136;40.360;2023-02-13T08:03:00;99220.41;;;-3.67;76.58
26487;BME280;14425;56.136;40.360;2023-02-13T08:05:26;99210.59;;;-2.92;74.13
26487;BME280;14425;56.136;40.360;2023-02-13T08:07:52;99200.03;;;-2.13;69.41
26487;BME280;14425;56.136;40.360;2023-02-13T08:10:18;99191.28;;;-1.84;67.76
26487;BME280;14425;56.136;40.360;2023-02-13T08:13:03;99188.19;;;-2.25;66.34
26487;BME280;14425;56.136;40.360;2023-02-13T08:15:29;99176.41;;;-2.14;66.56
26487;BME280;14425;56.136;40.360;2023-02-13T08:17:55;99168.41;;;-1.86;69.17
26487;BME280;14425;56.136;40.360;2023-02-13T08:20:20;99162.16;;;-1.79;69.60
26487;BME280;14425;56.136;40.360;2023-02-13T08:22:46;99170.25;;;-2.50;66.12
26487;BME280;14425;56.136;40.360;2023-02-13T08:25:11;99148.84;;;-1.89;67.12
26487;BME280;14425;56.136;40.360;2023-02-13T08:27:38;99154.84;;;-3.06;70.29
26487;BME280;14425;56.136;40.360;2023-02-13T08:30:04;99154.91;;;-2.41;69.74
26487;BME280;14425;56.136;40.360;2023-02-13T08:32:30;99139.97;;;-1.83;71.35
26487;BME280;14425;56.136;40.360;2023-02-13T08:34:55;99148.31;;;-2.07;71.69
26487;BME280;14425;56.136;40.360;2023-02-13T08:37:21;99157.59;;;-1.73;67.82
26487;BME280;14425;56.136;40.360;2023-02-13T08:39:46;99153.56;;;-2.48;70.22
26487;BME280;14425;56.136;40.360;2023-02-13T08:42:12;99127.91;;;-1.98;69.82
26487;BME280;14425;56.136;40.360;2023-02-13T08:44:37;99137.03;;;-2.00;69.30
26487;BME280;14425;56.136;40.360;2023-02-13T08:47:06;99122.59;;;-2.78;70.98
26487;BME280;14425;56.136;40.360;2023-02-13T08:49:32;99126.44;;;-2.28;71.74
26487;BME280;14425;56.136;40.360;2023-02-13T08:51:58;99125.72;;;-2.37;72.22
26487;BME280;14425;56.136;40.360;2023-02-13T08:54:24;99131.00;;;-2.99;73.23
26487;BME280;14425;56.136;40.360;2023-02-13T08:56:49;99112.25;;;-3.23;77.90
26487;BME280;14425;56.136;40.360;2023-02-13T08:59:15;99126.44;;;-2.50;73.52
26487;BME280;14425;56.136;40.360;2023-02-13T09:01:41;99122.31;;;-2.06;73.37
26487;BME280;14425;56.136;40.360;2023-02-13T09:04:06;99104.38;;;-2.09;71.41
26487;BME280;14425;56.136;40.360;2023-02-13T09:06:32;99108.03;;;-2.60;75.31
26487;BME280;14425;56.136;40.360;2023-02-13T09:08:57;99106.59;;;-2.01;70.67
26487;BME280;14425;56.136;40.360;2023-02-13T09:11:23;99093.50;;;-2.30;72.81
26487;BME280;14425;56.136;40.360;2023-02-13T09:13:52;99091.59;;;-1.42;70.19
26487;BME280;14425;56.136;40.360;2023-02-13T09:16:18;99084.94;;;-0.83;66.34
26487;BME280;14425;56.136;40.360;2023-02-13T09:18:46;99079.84;;;-1.06;65.38
26487;BME280;14425;56.136;40.360;2023-02-13T09:21:12;99079.03;;;-0.46;64.02
26487;BME280;14425;56.136;40.360;2023-02-13T09:23:39;99077.88;;;-0.87;64.60
26487;BME280;14425;56.136;40.360;2023-02-13T09:26:08;99073.53;;;-1.93;69.05
26487;BME280;14425;56.136;40.360;2023-02-13T09:28:35;99082.22;;;-2.45;73.72
26487;BME280;14425;56.136;40.360;2023-02-13T09:31:12;99061.69;;;-1.94;73.02
26487;BME280;14425;56.136;40.360;2023-02-13T09:33:39;99072.09;;;-2.01;72.85
26487;BME280;14425;56.136;40.360;2023-02-13T09:36:07;99064.53;;;-1.43;69.17
26487;BME280;14425;56.136;40.360;2023-02-13T09:38:33;99063.69;;;-1.08;67.79
26487;BME280;14425;56.136;40.360;2023-02-13T09:41:02;99071.00;;;-1.71;67.75
26487;BME280;14425;56.136;40.360;2023-02-13T09:43:36;99043.66;;;-2.32;73.63
26487;BME280;14425;56.136;40.360;2023-02-13T09:46:30;99047.06;;;-1.52;70.94
26487;BME280;14425;56.136;40.360;2023-02-13T09:48:59;99051.34;;;-0.80;67.32
26487;BME280;14425;56.136;40.360;2023-02-13T09:51:26;99044.63;;;-1.03;66.84
26487;BME280;14425;56.136;40.360;2023-02-13T09:54:02;99027.91;;;-1.25;65.91
26487;BME280;14425;56.136;40.360;2023-02-13T09:56:39;99038.63;;;-2.20;72.10
26487;BME280;14425;56.136;40.360;2023-02-13T09:59:41;99045.59;;;-2.72;75.18
26487;BME280;14425;56.136;40.360;2023-02-13T10:02:22;99046.97;;;-2.66;74.92
26487;BME280;14425;56.136;40.360;2023-02-13T10:07:42;99009.00;;;-1.42;70.03
26487;BME280;14425;56.136;40.360;2023-02-13T10:18:08;99014.25;;;-2.64;73.92
26487;BME280;14425;56.136;40.360;2023-02-13T10:20:45;99014.78;;;-2.46;75.74
26487;BME280;14425;56.136;40.360;2023-02-13T10:25:57;98997.94;;;-1.90;73.70
26487;BME280;14425;56.136;40.360;2023-02-13T10:28:48;99001.53;;;-2.66;78.16
26487;BME280;14425;56.136;40.360;2023-02-13T10:31:38;98999.88;;;-2.87;78.62
26487;BME280;14425;56.136;40.360;2023-02-13T10:34:23;98986.28;;;-2.45;79.50
26487;BME280;14425;56.136;40.360;2023-02-13T10:36:49;98981.56;;;-1.95;75.04
26487;BME280;14425;56.136;40.360;2023-02-13T10:39:27;98986.81;;;-2.93;78.36
26487;BME280;14425;56.136;40.360;2023-02-13T11:02:58;98950.84;;;-1.54;69.60
26487;BME280;14425;56.136;40.360;2023-02-13T11:05:30;98951.81;;;-1.16;69.88
26487;BME280;14425;56.136;40.360;2023-02-13T11:07:56;98950.28;;;-1.73;71.63
26487;BME280;14425;56.136;40.360;2023-02-13T11:10:25;98945.56;;;-1.69;71.88
26487;BME280;14425;56.136;40.360;2023-02-13T11:12:51;98943.47;;;-1.51;72.64
26487;BME280;14425;56.136;40.360;2023-02-13T11:17:51;98920.72;;;-1.62;71.72
26487;BME280;14425;56.136;40.360;2023-02-13T11:22:52;98935.19;;;-1.13;70.23
26487;BME280;14425;56.136;40.360;2023-02-13T11:25:24;98936.31;;;-1.33;69.66
26487;BME280;14425;56.136;40.360;2023-02-13T11:27:54;98921.38;;;-2.00;76.45
26487;BME280;14425;56.136;40.360;2023-02-13T11:30:37;98919.59;;;-1.78;77.43
26487;BME280;14425;56.136;40.360;2023-02-13T11:33:26;98929.22;;;-1.13;72.19
26487;BME280;14425;56.136;40.360;2023-02-13T11:36:07;98924.88;;;-1.75;72.78
26487;BME280;14425;56.136;40.360;2023-02-13T11:38:34;98927.06;;;-1.32;73.32
26487;BME280;14425;56.136;40.360;2023-02-13T11:41:09;98918.03;;;-1.28;72.88
26487;BME280;14425;56.136;40.360;2023-02-13T11:46:17;98912.69;;;-1.45;73.39
26487;BME280;14425;56.136;40.360;2023-02-13T11:49:04;98908.63;;;-1.90;76.79
26487;BME280;14425;56.136;40.360;2023-02-13T11:51:54;98922.41;;;-1.02;73.06
26487;BME280;14425;56.136;40.360;2023-02-13T11:54:31;98914.34;;;-1.45;74.21
26487;BME280;14425;56.136;40.360;2023-02-13T11:59:42;98896.69;;;-1.20;74.40
26487;BME280;14425;56.136;40.360;2023-02-13T12:02:15;98893.44;;;-1.31;74.42
26487;BME280;14425;56.136;40.360;2023-02-13T12:04:41;98883.53;;;-1.40;76.55
26487;BME280;14425;56.136;40.360;2023-02-13T12:09:52;98888.19;;;-1.93;79.37
26487;BME280;14425;56.136;40.360;2023-02-13T12:12:26;98907.28;;;-2.54;85.25
26487;BME280;14425;56.136;40.360;2023-02-13T12:14:55;98896.53;;;-3.08;90.45
26487;BME280;14425;56.136;40.360;2023-02-13T12:17:22;98880.06;;;-2.58;92.25
26487;BME280;14425;56.136;40.360;2023-02-13T12:19:50;98888.13;;;-2.40;87.70
26487;BME280;14425;56.136;40.360;2023-02-13T12:22:29;98884.06;;;-3.06;93.23
26487;BME280;14425;56.136;40.360;2023-02-13T12:28:14;98857.63;;;-2.20;90.40
26487;BME280;14425;56.136;40.360;2023-02-13T12:36:09;98858.47;;;-2.89;92.97
26487;BME280;14425;56.136;40.360;2023-02-13T12:44:02;98842.63;;;-2.64;92.30
26487;BME280;14425;56.136;40.360;2023-02-13T12:49:48;98830.88;;;-2.98;98.02
26487;BME280;14425;56.136;40.360;2023-02-13T12:57:51;98833.66;;;-2.94;94.95
26487;BME280;14425;56.136;40.360;2023-02-13T13:00:47;98824.03;;;-2.31;95.15
26487;BME280;14425;56.136;40.360;2023-02-13T13:03:34;98809.63;;;-1.96;89.07
26487;BME280;14425;56.136;40.360;2023-02-13T13:09:27;98812.81;;;-2.34;93.28
26487;BME280;14425;56.136;40.360;2023-02-13T13:14:57;98816.88;;;-2.25;91.75
26487;BME280;14425;56.136;40.360;2023-02-13T13:28:25;98800.72;;;-2.50;99.17
26487;BME280;14425;56.136;40.360;2023-02-13T13:30:52;98794.81;;;-2.27;95.29
26487;BME280;14425;56.136;40.360;2023-02-13T13:33:20;98797.44;;;-2.14;92.02
26487;BME280;14425;56.136;40.360;2023-02-13T13:39:13;98781.97;;;-3.00;100.00
26487;BME280;14425;56.136;40.360;2023-02-13T13:49:43;98772.19;;;-3.63;100.00
26487;BME280;14425;56.136;40.360;2023-02-13T13:54:45;98773.75;;;-3.53;100.00
26487;BME280;14425;56.136;40.360;2023-02-13T13:57:25;98761.72;;;-4.22;100.00
26487;BME280;14425;56.136;40.360;2023-02-13T14:00:01;98768.25;;;-4.56;100.00
26487;BME280;14425;56.136;40.360;2023-02-13T14:02:48;98762.16;;;-4.05;100.00
26487;BME280;14425;56.136;40.360;2023-02-13T14:05:27;98755.13;;;-4.42;100.00
26487;BME280;14425;56.136;40.360;2023-02-13T14:07:59;98766.28;;;-4.28;100.00
26487;BME280;14425;56.136;40.360;2023-02-13T14:31:35;98741.03;;;-4.50;100.00
26487;BME280;14425;56.136;40.360;2023-02-13T14:34:07;98749.38;;;-3.86;100.00
26487;BME280;14425;56.136;40.360;2023-02-13T14:36:42;98748.41;;;-3.32;100.00
26487;BME280;14425;56.136;40.360;2023-02-13T14:39:30;98727.47;;;-3.31;100.00
26487;BME280;14425;56.136;40.360;2023-02-13T14:42:01;98727.69;;;-2.94;100.00
26487;BME280;14425;56.136;40.360;2023-02-13T14:47:11;98718.50;;;-2.58;100.00
26487;BME280;14425;56.136;40.360;2023-02-13T14:49:39;98709.59;;;-2.89;100.00
26487;BME280;14425;56.136;40.360;2023-02-13T14:52:18;98711.69;;;-2.60;100.00
26487;BME280;14425;56.136;40.360;2023-02-13T14:54:55;98710.25;;;-2.56;100.00
26487;BME280;14425;56.136;40.360;2023-02-13T14:57:29;98691.03;;;-2.89;100.00
26487;BME280;14425;56.136;40.360;2023-02-13T15:00:08;98683.69;;;-2.86;100.00
26487;BME280;14425;56.136;40.360;2023-02-13T15:03:03;98686.91;;;-2.65;100.00
26487;BME280;14425;56.136;40.360;2023-02-13T15:05:33;98683.59;;;-2.76;100.00
26487;BME280;14425;56.136;40.360;2023-02-13T15:08:27;98676.47;;;-2.70;100.00
26487;BME280;14425;56.136;40.360;2023-02-13T15:10:55;98675.03;;;-2.54;100.00
26487;BME280;14425;56.136;40.360;2023-02-13T15:13:31;98671.94;;;-1.90;100.00
26487;BME280;14425;56.136;40.360;2023-02-13T15:15:58;98670.00;;;-1.94;100.00
26487;BME280;14425;56.136;40.360;2023-02-13T15:18:29;98664.81;;;-2.32;100.00
26487;BME280;14425;56.136;40.360;2023-02-13T15:20:57;98658.13;;;-3.03;100.00
26487;BME280;14425;56.136;40.360;2023-02-13T15:23:27;98651.66;;;-3.11;100.00
26487;BME280;14425;56.136;40.360;2023-02-13T15:26:05;98663.50;;;-2.51;100.00
26487;BME280;14425;56.136;40.360;2023-02-13T15:28:32;98663.34;;;-2.17;100.00
26487;BME280;14425;56.136;40.360;2023-02-13T15:33:28;98640.25;;;-2.70;100.00
26487;BME280;14425;56.136;40.360;2023-02-13T15:36:02;98640.13;;;-2.60;100.00
26487;BME280;14425;56.136;40.360;2023-02-13T15:38:30;98640.91;;;-2.61;100.00
26487;BME280;14425;56.136;40.360;2023-02-13T15:41:10;98642.25;;;-3.02;100.00
26487;BME280;14425;56.136;40.360;2023-02-13T15:43:40;98643.44;;;-3.20;100.00
26487;BME280;14425;56.136;40.360;2023-02-13T15:48:44;98634.19;;;-2.37;100.00
26487;BME280;14425;56.136;40.360;2023-02-13T15:51:18;98621.16;;;-2.55;100.00
26487;BME280;14425;56.136;40.360;2023-02-13T15:53:51;98617.16;;;-2.39;100.00
26487;BME280;14425;56.136;40.360;2023-02-13T15:56:17;98595.69;;;-1.84;100.00
26487;BME280;14425;56.136;40.360;2023-02-13T15:58:43;98583.00;;;-1.59;100.00
26487;BME280;14425;56.136;40.360;2023-02-13T16:01:09;98590.72;;;-2.45;100.00
26487;BME280;14425;56.136;40.360;2023-02-13T16:03:36;98583.44;;;-2.03;100.00
26487;BME280;14425;56.136;40.360;2023-02-13T16:06:04;98589.06;;;-2.32;100.00
26487;BME280;14425;56.136;40.360;2023-02-13T16:08:37;98595.25;;;-2.64;100.00